Time,TemperatureF,DewpointF,PressureIn,WindDirection,WindDirectionDegrees,WindSpeedMPH,WindSpeedGustMPH,Humidity,HourlyPrecipIn,Conditions,Clouds,dailyrainin,SolarRadiationWatts/m^2,SoftwareType,DateUTC
2013-04-03 00:23:00,46.0,43.0,-100.00,SE,127,4.0,8.0,89,0.00,,,0.00,0.000000,,2013-04-03 07:23:00,
2013-04-03 00:32:00,46.0,43.0,-100.00,SE,127,4.0,8.0,89,0.00,,,0.00,0.000000,,2013-04-03 07:32:00,
2013-04-03 00:42:00,46.0,43.0,-100.00,SE,127,4.0,8.0,89,0.00,,,0.00,0.000000,,2013-04-03 07:42:00,
2013-04-03 00:52:00,46.0,43.0,-100.00,SE,127,4.0,8.0,89,0.00,,,0.00,0.000000,,2013-04-03 07:52:00,
2013-04-03 01:22:00,42.0,42.0,-100.00,SE,130,1.0,8.0,99,0.00,,,0.00,0.000000,,2013-04-03 08:22:00,
2013-04-03 01:32:00,42.0,42.0,-100.00,SE,130,1.0,8.0,99,0.00,,,0.00,0.000000,,2013-04-03 08:32:00,
2013-04-03 01:42:00,42.0,42.0,-100.00,SE,130,1.0,8.0,99,0.00,,,0.00,0.000000,,2013-04-03 08:42:00,
2013-04-03 01:52:00,42.0,42.0,-100.00,SE,130,1.0,8.0,99,0.00,,,0.00,0.000000,,2013-04-03 08:52:00,
2013-04-03 02:22:00,44.0,44.0,-100.00,SE,144,2.0,5.0,99,0.00,,,0.00,0.000000,,2013-04-03 09:22:00,
2013-04-03 02:33:00,44.0,44.0,-100.00,SE,144,2.0,5.0,99,0.00,,,0.00,0.000000,,2013-04-03 09:33:00,
2013-04-03 02:43:00,44.0,44.0,-100.00,SE,144,2.0,5.0,99,0.00,,,0.00,0.000000,,2013-04-03 09:43:00,
2013-04-03 02:52:00,44.0,44.0,-100.00,SE,144,2.0,5.0,99,0.00,,,0.00,0.000000,,2013-04-03 09:52:00,
2013-04-03 03:22:00,43.0,43.0,-100.00,SE,130,1.0,7.0,99,0.00,,,0.00,0.000000,,2013-04-03 10:22:00,
2013-04-03 03:33:00,43.0,43.0,-100.00,SE,130,1.0,7.0,99,0.00,,,0.00,0.000000,,2013-04-03 10:33:00,
2013-04-03 03:42:00,43.0,43.0,-100.00,SE,130,1.0,7.0,99,0.00,,,0.00,0.000000,,2013-04-03 10:42:00,
2013-04-03 03:52:00,43.0,43.0,-100.00,SE,130,1.0,7.0,99,0.00,,,0.00,0.000000,,2013-04-03 10:52:00,
2013-04-03 04:22:00,43.0,43.0,-100.00,ESE,114,0.0,5.0,99,0.00,,,0.00,0.000000,,2013-04-03 11:22:00,
2013-04-03 04:32:00,43.0,43.0,-100.00,ESE,114,0.0,5.0,99,0.00,,,0.00,0.000000,,2013-04-03 11:32:00,
2013-04-03 04:42:00,43.0,43.0,-100.00,ESE,114,0.0,5.0,99,0.00,,,0.00,0.000000,,2013-04-03 11:42:00,
2013-04-03 04:52:00,43.0,43.0,-100.00,ESE,114,0.0,5.0,99,0.00,,,0.00,0.000000,,2013-04-03 11:52:00,
2013-04-03 05:22:00,42.0,42.0,-100.00,SE,128,3.0,6.0,99,0.00,,,0.00,0.000000,,2013-04-03 12:22:00,
2013-04-03 05:32:00,42.0,42.0,-100.00,SE,128,3.0,6.0,99,0.00,,,0.00,0.000000,,2013-04-03 12:32:00,
2013-04-03 05:42:00,42.0,42.0,-100.00,SE,128,3.0,6.0,99,0.00,,,0.00,0.000000,,2013-04-03 12:42:00,
2013-04-03 05:52:00,42.0,42.0,-100.00,SE,128,3.0,6.0,99,0.00,,,0.00,0.000000,,2013-04-03 12:52:00,
2013-04-03 06:22:00,41.0,41.0,-100.00,ESE,118,0.0,6.0,99,0.00,,,0.00,0.000000,,2013-04-03 13:22:00,
2013-04-03 06:32:00,41.0,41.0,-100.00,ESE,118,0.0,6.0,99,0.00,,,0.00,0.000000,,2013-04-03 13:32:00,
2013-04-03 06:42:00,41.0,41.0,-100.00,ESE,118,0.0,6.0,99,0.00,,,0.00,0.000000,,2013-04-03 13:42:00,
2013-04-03 06:52:00,41.0,41.0,-100.00,ESE,118,0.0,6.0,99,0.00,,,0.00,0.000000,,2013-04-03 13:52:00,
2013-04-03 07:22:00,40.0,40.0,-100.00,ESE,117,0.0,8.0,99,0.00,,,-99.99,2.000000,,2013-04-03 14:22:00,
2013-04-03 07:32:00,40.0,40.0,-100.00,ESE,117,0.0,8.0,99,0.00,,,-99.99,2.000000,,2013-04-03 14:32:00,
2013-04-03 07:42:00,40.0,40.0,-100.00,ESE,117,0.0,8.0,99,0.00,,,-99.99,2.000000,,2013-04-03 14:42:00,
2013-04-03 07:52:00,40.0,40.0,-100.00,ESE,117,0.0,8.0,99,0.00,,,-99.99,2.000000,,2013-04-03 14:52:00,
2013-04-03 08:23:00,46.0,46.0,-100.00,ESE,119,1.0,4.0,99,0.00,,,0.00,35.000000,,2013-04-03 15:23:00,
2013-04-03 08:33:00,46.0,46.0,-100.00,ESE,119,1.0,4.0,99,0.00,,,0.00,35.000000,,2013-04-03 15:33:00,
2013-04-03 08:42:00,46.0,46.0,-100.00,ESE,119,1.0,4.0,99,0.00,,,0.00,35.000000,,2013-04-03 15:42:00,
2013-04-03 08:53:00,46.0,46.0,-100.00,ESE,119,1.0,4.0,99,0.00,,,0.00,35.000000,,2013-04-03 15:53:00,
2013-04-03 09:23:00,60.0,48.0,-100.00,West,260,0.0,3.0,65,0.00,,,0.00,251.000000,,2013-04-03 16:23:00,
2013-04-03 10:22:00,63.0,51.0,-100.00,West,276,2.0,6.0,66,-99.99,,,0.00,610.000000,,2013-04-03 17:22:00,
2013-04-03 11:22:00,65.0,49.0,-100.00,West,273,2.0,7.0,57,-99.99,,,0.00,770.000000,,2013-04-03 18:22:00,
2013-04-03 11:33:00,65.0,49.0,-100.00,West,273,2.0,7.0,57,-99.99,,,0.00,770.000000,,2013-04-03 18:33:00,
2013-04-03 11:42:00,65.0,49.0,-100.00,West,273,2.0,7.0,57,-99.99,,,0.00,770.000000,,2013-04-03 18:42:00,
2013-04-03 11:52:00,65.0,49.0,-100.00,West,273,2.0,7.0,57,-99.99,,,0.00,770.000000,,2013-04-03 18:52:00,
2013-04-03 12:22:00,68.0,52.0,-100.00,NW,309,2.0,10.0,57,0.00,,,0.00,921.000000,,2013-04-03 19:22:00,
2013-04-03 12:32:00,68.0,52.0,-100.00,NW,309,2.0,10.0,57,0.00,,,0.00,921.000000,,2013-04-03 19:32:00,
2013-04-03 12:42:00,68.0,52.0,-100.00,NW,309,2.0,10.0,57,0.00,,,0.00,921.000000,,2013-04-03 19:42:00,
2013-04-03 12:52:00,68.0,52.0,-100.00,NW,309,2.0,10.0,57,0.00,,,0.00,921.000000,,2013-04-03 19:52:00,
2013-04-03 13:22:00,72.0,53.0,-100.00,East,88,2.0,9.0,52,0.00,,,-99.99,1040.000000,,2013-04-03 20:22:00,
2013-04-03 14:22:00,74.0,53.0,-100.00,WNW,298,3.0,9.0,48,0.00,,,0.00,1072.000000,,2013-04-03 21:22:00,
2013-04-03 14:32:00,74.0,53.0,-100.00,WNW,298,3.0,9.0,48,0.00,,,0.00,1072.000000,,2013-04-03 21:32:00,
2013-04-03 15:22:00,73.0,51.0,-100.00,NW,315,3.0,10.0,46,0.00,,,0.00,990.000000,,2013-04-03 22:22:00,
2013-04-03 15:32:00,73.0,51.0,-100.00,NW,315,3.0,10.0,46,0.00,,,0.00,990.000000,,2013-04-03 22:32:00,
2013-04-03 16:22:00,74.0,51.0,-100.00,WNW,285,4.0,10.0,45,0.00,,,0.00,842.000000,,2013-04-03 23:22:00,
2013-04-03 16:32:00,74.0,51.0,-100.00,WNW,285,4.0,10.0,45,0.00,,,0.00,842.000000,,2013-04-03 23:32:00,
2013-04-03 17:22:00,74.0,49.0,-100.00,WSW,251,2.0,10.0,42,0.00,,,0.00,654.000000,,2013-04-04 00:22:00,
2013-04-03 17:32:00,74.0,49.0,-100.00,WSW,251,2.0,10.0,42,0.00,,,0.00,654.000000,,2013-04-04 00:32:00,
2013-04-03 17:43:00,74.0,49.0,-100.00,WSW,251,2.0,10.0,42,0.00,,,0.00,654.000000,,2013-04-04 00:43:00,
2013-04-03 17:52:00,74.0,49.0,-100.00,WSW,251,2.0,10.0,42,0.00,,,0.00,654.000000,,2013-04-04 00:52:00,
2013-04-03 18:22:00,74.0,51.0,-100.00,WNW,295,1.0,7.0,44,0.00,,,0.00,420.000000,,2013-04-04 01:22:00,
2013-04-03 18:32:00,74.0,51.0,-100.00,WNW,295,1.0,7.0,44,0.00,,,0.00,420.000000,,2013-04-04 01:32:00,
2013-04-03 18:43:00,74.0,51.0,-100.00,WNW,295,1.0,7.0,44,0.00,,,0.00,420.000000,,2013-04-04 01:43:00,
2013-04-03 18:52:00,74.0,51.0,-100.00,WNW,295,1.0,7.0,44,0.00,,,0.00,420.000000,,2013-04-04 01:52:00,
2013-04-03 19:22:00,68.0,49.0,-100.00,NW,308,0.0,5.0,50,0.00,,,-99.99,145.000000,,2013-04-04 02:22:00,
2013-04-03 19:32:00,68.0,49.0,-100.00,NW,308,0.0,5.0,50,0.00,,,-99.99,145.000000,,2013-04-04 02:32:00,
2013-04-03 19:42:00,68.0,49.0,-100.00,NW,308,0.0,5.0,50,0.00,,,-99.99,145.000000,,2013-04-04 02:42:00,
2013-04-03 19:52:00,68.0,49.0,-100.00,NW,308,0.0,5.0,50,0.00,,,-99.99,145.000000,,2013-04-04 02:52:00,
2013-04-03 20:22:00,57.0,49.0,-100.00,ESE,119,1.0,3.0,74,0.00,,,0.00,3.000000,,2013-04-04 03:22:00,
2013-04-03 20:33:00,57.0,49.0,-100.00,ESE,119,1.0,3.0,74,0.00,,,0.00,3.000000,,2013-04-04 03:33:00,
2013-04-03 20:43:00,57.0,49.0,-100.00,ESE,119,1.0,3.0,74,0.00,,,0.00,3.000000,,2013-04-04 03:43:00,
2013-04-03 20:53:00,57.0,49.0,-100.00,ESE,119,1.0,3.0,74,0.00,,,0.00,3.000000,,2013-04-04 03:53:00,
2013-04-03 21:33:00,56.0,43.0,-100.00,SE,124,2.0,8.0,61,0.00,,,0.00,0.000000,,2013-04-04 04:33:00,
2013-04-03 21:43:00,56.0,43.0,-100.00,SE,124,2.0,8.0,61,0.00,,,0.00,0.000000,,2013-04-04 04:43:00,
2013-04-03 21:52:00,56.0,43.0,-100.00,SE,124,2.0,8.0,61,0.00,,,0.00,0.000000,,2013-04-04 04:52:00,
2013-04-03 22:23:00,56.0,38.0,-100.00,SE,127,1.0,9.0,50,0.00,,,0.00,0.000000,,2013-04-04 05:23:00,
2013-04-03 22:32:00,56.0,38.0,-100.00,SE,127,1.0,9.0,50,0.00,,,0.00,0.000000,,2013-04-04 05:32:00,
2013-04-03 22:42:00,56.0,38.0,-100.00,SE,127,1.0,9.0,50,0.00,,,0.00,0.000000,,2013-04-04 05:42:00,
2013-04-03 22:52:00,56.0,38.0,-100.00,SE,127,1.0,9.0,50,0.00,,,0.00,0.000000,,2013-04-04 05:52:00,
2013-04-03 23:22:00,55.0,37.0,-100.00,SSW,204,0.0,4.0,50,0.00,,,0.00,0.000000,,2013-04-04 06:22:00,
2013-04-03 23:32:00,55.0,37.0,-100.00,SSW,204,0.0,4.0,50,0.00,,,0.00,0.000000,,2013-04-04 06:32:00,
2013-04-03 23:42:00,55.0,37.0,-100.00,SSW,204,0.0,4.0,50,0.00,,,0.00,0.000000,,2013-04-04 06:42:00,
2013-04-03 23:52:00,55.0,37.0,-100.00,SSW,204,0.0,4.0,50,0.00,,,0.00,0.000000,,2013-04-04 06:52:00,